createdAt,value
2019-04-25T00:01:03.491Z,83.70
2019-04-25T00:03:33.525Z,83.40
2019-04-25T00:06:02.364Z,83.60
2019-04-25T00:08:31.220Z,83.60
2019-04-25T00:11:01.624Z,83.90
2019-04-25T00:13:31.737Z,84.30
2019-04-25T00:16:01.771Z,84.20
2019-04-25T00:18:31.794Z,84.60
2019-04-25T00:21:05.030Z,84.60
2019-04-25T00:23:34.360Z,84.90
2019-04-25T00:26:04.376Z,84.70
2019-04-25T00:28:32.775Z,84.10
2019-04-25T00:31:02.113Z,83.90
2019-04-25T00:33:31.457Z,83.80
2019-04-25T00:36:00.077Z,84.10
2019-04-25T00:38:28.449Z,84.30
2019-04-25T00:40:56.750Z,84.60
2019-04-25T00:43:25.217Z,85.00
2019-04-25T00:45:53.621Z,85.60
2019-04-25T00:48:22.298Z,86.10
2019-04-25T00:50:52.077Z,86.40
2019-04-25T00:53:21.204Z,86.60
2019-04-25T00:55:51.613Z,86.70
2019-04-25T00:58:21.571Z,86.20
2019-04-25T01:01:09.774Z,86.40
2019-04-25T01:03:38.141Z,86.50
2019-04-25T01:06:06.562Z,85.90
2019-04-25T01:08:34.994Z,85.90
2019-04-25T01:11:03.453Z,85.70
2019-04-25T01:13:32.170Z,85.90
2019-04-25T01:16:03.695Z,86.00
2019-04-25T01:18:31.441Z,85.70
2019-04-25T01:21:00.014Z,85.50
2019-04-25T01:23:28.406Z,85.50
2019-04-25T01:25:56.892Z,85.60
2019-04-25T01:28:25.249Z,85.50
2019-04-25T01:30:54.794Z,85.50
2019-04-25T01:33:23.898Z,86.00
2019-04-25T01:35:57.060Z,86.50
2019-04-25T01:38:35.935Z,86.80
2019-04-25T01:41:12.212Z,87.00
2019-04-25T01:43:43.643Z,86.90
2019-04-25T01:46:13.357Z,87.10
2019-04-25T01:48:43.365Z,87.30
2019-04-25T01:51:11.845Z,87.30
2019-04-25T01:53:40.197Z,87.60
2019-04-25T01:56:08.516Z,87.60
2019-04-25T01:58:36.865Z,87.60
2019-04-25T02:01:05.289Z,87.40
2019-04-25T02:03:35.647Z,87.80
2019-04-25T02:06:05.014Z,87.80
2019-04-25T02:08:33.992Z,88.00
2019-04-25T02:11:06.968Z,88.10
2019-04-25T02:13:35.830Z,89.00
2019-04-25T02:16:05.479Z,88.60
2019-04-25T02:18:33.882Z,88.20
2019-04-25T02:21:04.368Z,88.30
2019-04-25T02:23:34.071Z,88.30
2019-04-25T02:26:13.755Z,86.80
2019-04-25T02:28:33.842Z,87.20
2019-04-25T02:31:07.779Z,87.70
2019-04-25T02:33:34.032Z,87.60
2019-04-25T02:36:05.004Z,87.50
2019-04-25T02:38:34.212Z,87.70
2019-04-25T02:41:08.379Z,87.90
2019-04-25T02:43:35.023Z,87.80
2019-04-25T02:46:15.041Z,87.70
2019-04-25T02:48:59.567Z,87.80
2019-04-25T02:51:45.176Z,87.70
2019-04-25T02:54:14.071Z,87.80
2019-04-25T02:56:46.331Z,88.30
2019-04-25T02:59:12.617Z,88.60
2019-04-25T03:01:40.997Z,89.50
2019-04-25T03:04:11.404Z,89.20
2019-04-25T03:06:39.545Z,89.50
2019-04-25T03:09:10.016Z,89.30
2019-04-25T03:11:38.531Z,89.30
2019-04-25T03:14:09.487Z,89.60
2019-04-25T03:16:36.984Z,89.70
2019-04-25T03:19:14.101Z,90.00
2019-04-25T03:21:45.165Z,89.80
2019-04-25T03:24:16.638Z,90.00
2019-04-25T03:26:44.335Z,90.20
2019-04-25T03:29:13.675Z,90.30
2019-04-25T03:31:44.754Z,90.30
2019-04-25T03:34:16.930Z,90.20
2019-04-25T03:36:43.749Z,90.30
2019-04-25T03:39:14.458Z,90.40
2019-04-25T03:41:43.851Z,90.40
2019-04-25T03:44:13.959Z,90.40
2019-04-25T03:46:43.833Z,90.60
2019-04-25T03:49:13.884Z,90.50
2019-04-25T03:51:43.861Z,90.50
2019-04-25T03:54:14.106Z,90.70
2019-04-25T03:56:53.232Z,90.70
2019-04-25T03:59:14.669Z,90.70
2019-04-25T04:01:43.960Z,90.80
2019-04-25T04:04:14.351Z,90.60
2019-04-25T04:06:44.051Z,90.30
2019-04-25T04:09:14.235Z,90.20
2019-04-25T04:11:43.484Z,90.50
2019-04-25T04:14:12.962Z,90.70
2019-04-25T04:16:44.308Z,90.40
2019-04-25T04:19:14.738Z,90.10
2019-04-25T04:21:48.258Z,90.40
2019-04-25T04:24:27.209Z,90.40
2019-04-25T04:27:10.708Z,90.30
2019-04-25T04:29:39.204Z,90.30
2019-04-25T04:32:08.592Z,90.60
2019-04-25T04:34:37.047Z,90.80
2019-04-25T04:37:05.353Z,91.00
2019-04-25T04:39:33.924Z,91.20
2019-04-25T04:42:03.813Z,91.30
2019-04-25T04:44:34.171Z,91.20
2019-04-25T04:47:03.815Z,91.30
2019-04-25T04:49:34.079Z,91.50
2019-04-25T04:52:06.132Z,92.20
2019-04-25T04:54:34.293Z,92.60
2019-04-25T04:57:16.677Z,92.30
2019-04-25T04:59:33.769Z,92.20
2019-04-25T05:02:15.840Z,92.40
2019-04-25T05:04:56.609Z,92.50
2019-04-25T05:07:43.938Z,93.30
2019-04-25T05:10:14.694Z,93.40
2019-04-25T05:12:43.749Z,93.40
2019-04-25T05:15:16.226Z,94.10
2019-04-25T05:17:44.045Z,94.30
2019-04-25T05:20:13.397Z,94.30
2019-04-25T05:22:44.417Z,94.00
2019-04-25T05:25:15.298Z,94.50
2019-04-25T05:27:57.808Z,95.10
2019-04-25T05:30:19.353Z,95.10
2019-04-25T05:32:47.926Z,94.90
2019-04-25T05:35:16.596Z,94.90
2019-04-25T05:37:45.026Z,95.30
2019-04-25T05:40:14.745Z,95.10
2019-04-25T05:42:51.408Z,94.80
2019-04-25T05:45:21.485Z,94.40
2019-04-25T05:47:49.925Z,93.90
2019-04-25T05:50:18.338Z,93.80
2019-04-25T05:52:46.734Z,93.70
2019-04-25T05:55:17.308Z,93.50
2019-04-25T05:57:49.858Z,93.50
2019-04-25T06:00:16.639Z,93.20
2019-04-25T06:02:46.228Z,93.00
2019-04-25T06:05:14.729Z,92.80
2019-04-25T06:07:43.296Z,92.80
2019-04-25T06:10:14.398Z,92.90
2019-04-25T06:12:47.649Z,92.90
2019-04-25T06:15:18.322Z,92.90
2019-04-25T06:17:48.614Z,92.90
2019-04-25T06:20:19.972Z,92.60
2019-04-25T06:22:50.090Z,92.20
2019-04-25T06:25:21.334Z,91.80
2019-04-25T06:27:58.889Z,91.10
2019-04-25T06:30:24.945Z,90.90
2019-04-25T06:32:53.374Z,90.70
2019-04-25T06:35:24.484Z,90.70
2019-04-25T06:37:53.502Z,90.90
2019-04-25T06:40:22.510Z,90.90
2019-04-25T06:42:53.646Z,91.10
2019-04-25T06:45:36.198Z,91.40
2019-04-25T06:48:09.260Z,91.60
2019-04-25T06:50:37.677Z,91.80
2019-04-25T06:53:06.128Z,91.70
2019-04-25T06:55:34.492Z,91.50
2019-04-25T06:58:10.230Z,91.40
2019-04-25T07:00:40.540Z,91.10
2019-04-25T07:03:04.250Z,91.00
2019-04-25T07:05:39.592Z,90.70
2019-04-25T07:08:03.325Z,90.40
2019-04-25T07:10:33.587Z,90.10
2019-04-25T07:13:01.941Z,89.80
2019-04-25T07:15:30.368Z,89.80
2019-04-25T07:17:58.733Z,89.70
2019-04-25T07:20:28.320Z,89.60
2019-04-25T07:22:56.828Z,89.90
2019-04-25T07:25:27.745Z,90.00
2019-04-25T07:28:31.116Z,89.80
2019-04-25T07:31:16.292Z,89.60
2019-04-25T07:33:49.075Z,90.00
2019-04-25T07:36:17.666Z,90.10
2019-04-25T07:38:46.062Z,90.00
2019-04-25T07:41:16.251Z,90.00
2019-04-25T07:43:44.504Z,90.10
2019-04-25T07:46:13.517Z,90.00
2019-04-25T07:48:43.647Z,90.00
2019-04-25T07:51:14.726Z,89.40
2019-04-25T07:53:43.547Z,89.10
2019-04-25T07:56:14.103Z,88.80
2019-04-25T07:58:50.515Z,88.50
2019-04-25T08:01:13.937Z,88.10
2019-04-25T08:03:43.831Z,87.50
2019-04-25T08:06:13.725Z,87.30
2019-04-25T08:08:43.617Z,86.50
2019-04-25T08:11:13.854Z,86.10
2019-04-25T08:13:59.228Z,85.80
2019-04-25T08:16:30.065Z,85.50
2019-04-25T08:18:59.444Z,84.10
2019-04-25T08:21:27.758Z,83.80
2019-04-25T08:23:56.121Z,83.40
2019-04-25T08:26:24.542Z,82.70
2019-04-25T08:28:57.495Z,83.10
2019-04-25T08:31:23.475Z,82.70
2019-04-25T08:33:53.466Z,82.40
2019-04-25T08:36:23.379Z,82.80
2019-04-25T08:38:53.473Z,83.30
2019-04-25T08:41:23.804Z,83.70
2019-04-25T08:43:54.303Z,84.00
2019-04-25T08:46:23.538Z,83.80
2019-04-25T08:49:13.998Z,84.20
2019-04-25T08:51:44.533Z,84.40
2019-04-25T08:54:29.851Z,84.50
2019-04-25T08:56:59.865Z,84.10
2019-04-25T08:59:52.347Z,84.20
2019-04-25T09:02:32.952Z,83.80
2019-04-25T09:05:16.076Z,83.40
2019-04-25T09:07:45.361Z,84.30
2019-04-25T09:10:15.130Z,84.60
2019-04-25T09:12:44.286Z,84.90
2019-04-25T09:15:14.163Z,85.10
2019-04-25T09:17:45.707Z,85.70
2019-04-25T09:20:13.926Z,86.00
2019-04-25T09:22:44.232Z,86.30
2019-04-25T09:25:13.762Z,86.40
2019-04-25T09:27:43.330Z,86.50
2019-04-25T09:30:14.223Z,86.70
2019-04-25T09:32:44.076Z,86.30
2019-04-25T09:35:13.711Z,86.40
2019-04-25T09:37:44.816Z,86.30
2019-04-25T09:40:14.018Z,86.00
2019-04-25T09:42:44.727Z,85.90
2019-04-25T09:45:27.716Z,85.30
2019-04-25T09:48:06.755Z,85.50
2019-04-25T09:50:39.692Z,84.40
2019-04-25T09:53:15.465Z,84.30
2019-04-25T09:55:40.436Z,84.30
2019-04-25T09:58:10.463Z,82.80
2019-04-25T10:00:44.740Z,81.70
2019-04-25T10:03:13.632Z,81.10
2019-04-25T10:05:42.681Z,80.00
2019-04-25T10:08:11.202Z,79.70
2019-04-25T10:10:40.466Z,80.00
2019-04-25T10:13:08.937Z,79.70
2019-04-25T10:15:54.417Z,79.80
2019-04-25T10:18:23.384Z,79.90
2019-04-25T10:20:51.823Z,80.00
2019-04-25T10:23:20.357Z,81.00
2019-04-25T10:25:48.791Z,80.20
2019-04-25T10:28:17.245Z,79.40
2019-04-25T10:30:46.847Z,79.00
2019-04-25T10:33:15.390Z,78.80
2019-04-25T10:35:50.827Z,78.80
2019-04-25T10:38:14.597Z,79.10
2019-04-25T10:40:45.128Z,79.50
2019-04-25T10:43:15.006Z,79.00
2019-04-25T10:45:44.746Z,79.20
2019-04-25T10:48:13.980Z,79.30
2019-04-25T10:50:42.366Z,79.00
2019-04-25T10:53:10.804Z,78.30
2019-04-25T10:55:39.203Z,77.70
2019-04-25T10:58:08.733Z,77.40
2019-04-25T11:00:46.264Z,75.80
2019-04-25T11:03:28.424Z,76.40
2019-04-25T11:05:57.034Z,76.50
2019-04-25T11:08:25.389Z,77.40
2019-04-25T11:10:54.965Z,77.60
2019-04-25T11:13:23.325Z,78.00
2019-04-25T11:15:52.008Z,77.80
2019-04-25T11:18:20.430Z,76.90
2019-04-25T11:20:48.756Z,76.10
2019-04-25T11:23:17.191Z,75.00
2019-04-25T11:25:46.209Z,74.60
2019-04-25T11:28:14.674Z,75.00
2019-04-25T11:30:45.214Z,75.50
2019-04-25T11:33:14.380Z,75.20
2019-04-25T11:35:44.172Z,75.00
2019-04-25T11:38:14.482Z,75.20
2019-04-25T11:40:49.165Z,76.20
2019-04-25T11:43:17.289Z,76.40
2019-04-25T11:45:46.058Z,76.80
2019-04-25T11:48:15.270Z,77.80
2019-04-25T11:50:48.184Z,77.50
2019-04-25T11:53:13.712Z,77.40
2019-04-25T11:55:42.589Z,77.80
2019-04-25T11:58:11.093Z,78.50
2019-04-25T12:00:39.462Z,79.70
2019-04-25T12:03:08.345Z,80.20
2019-04-25T12:05:36.746Z,80.80
2019-04-25T12:08:05.393Z,81.20
2019-04-25T12:10:34.667Z,82.30
2019-04-25T12:13:03.116Z,83.40
2019-04-25T12:15:33.274Z,83.50
2019-04-25T12:18:01.810Z,84.10
2019-04-25T12:20:30.210Z,83.90
2019-04-25T12:23:08.055Z,83.90
2019-04-25T12:25:28.722Z,84.60
2019-04-25T12:27:57.117Z,84.60
2019-04-25T12:30:37.293Z,84.10
2019-04-25T12:32:55.590Z,85.30
2019-04-25T12:35:24.264Z,86.10
2019-04-25T12:37:54.008Z,85.70
2019-04-25T12:40:24.160Z,85.80
2019-04-25T12:42:52.861Z,85.70
2019-04-25T12:45:24.130Z,86.10
2019-04-25T12:47:57.304Z,86.30
2019-04-25T12:50:24.730Z,86.20
2019-04-25T12:52:54.702Z,86.10
2019-04-25T12:55:23.932Z,84.60
2019-04-25T12:57:54.898Z,84.40
2019-04-25T13:00:24.345Z,84.40
2019-04-25T13:02:53.896Z,85.00
2019-04-25T13:05:24.300Z,85.10
2019-04-25T13:07:56.681Z,85.40
2019-04-25T13:10:23.605Z,83.70
2019-04-25T13:12:55.264Z,83.60
2019-04-25T13:15:23.492Z,84.50
2019-04-25T13:17:53.638Z,82.70
2019-04-25T13:20:22.117Z,83.40
2019-04-25T13:22:50.613Z,83.40
2019-04-25T13:25:20.746Z,84.00
2019-04-25T13:27:54.023Z,84.60
2019-04-25T13:30:24.213Z,85.00
2019-04-25T13:32:54.178Z,85.80
2019-04-25T13:35:30.166Z,86.60
2019-04-25T13:37:59.334Z,86.70
2019-04-25T13:40:27.744Z,87.10
2019-04-25T13:42:56.456Z,86.40
2019-04-25T13:45:24.972Z,86.50
2019-04-25T13:47:53.395Z,85.70
2019-04-25T13:50:23.955Z,85.10
2019-04-25T13:52:53.272Z,84.00
2019-04-25T13:55:23.689Z,84.20
2019-04-25T13:57:53.099Z,84.00
2019-04-25T14:00:24.859Z,83.20
2019-04-25T14:02:53.896Z,83.80
2019-04-25T14:05:24.552Z,84.40
2019-04-25T14:07:53.164Z,83.90
2019-04-25T14:10:23.020Z,84.10
2019-04-25T14:12:53.486Z,83.50
2019-04-25T14:15:25.157Z,84.30
2019-04-25T14:18:13.771Z,84.00
2019-04-25T14:20:43.848Z,84.60
2019-04-25T14:23:13.472Z,84.30
2019-04-25T14:25:42.271Z,84.50
2019-04-25T14:28:11.721Z,84.60
2019-04-25T14:30:40.190Z,84.40
2019-04-25T14:33:08.565Z,84.10
2019-04-25T14:35:37.017Z,84.60
2019-04-25T14:38:05.368Z,83.70
2019-04-25T14:40:33.765Z,84.10
2019-04-25T14:43:02.320Z,84.50
2019-04-25T14:45:42.426Z,85.00
2019-04-25T14:48:00.918Z,84.60
2019-04-25T14:50:29.954Z,84.00
2019-04-25T14:52:58.388Z,84.10
2019-04-25T14:55:40.562Z,83.60
2019-04-25T14:58:16.456Z,83.80
2019-04-25T15:00:47.658Z,83.50
2019-04-25T15:03:16.123Z,83.20
2019-04-25T15:05:44.555Z,83.40
2019-04-25T15:08:12.962Z,83.70
2019-04-25T15:10:41.322Z,83.80
2019-04-25T15:13:11.020Z,83.30
2019-04-25T15:15:39.356Z,82.80
2019-04-25T15:18:09.424Z,81.90
2019-04-25T15:20:37.817Z,81.60
2019-04-25T15:23:06.242Z,82.60
2019-04-25T15:25:34.689Z,82.70
2019-04-25T15:28:03.022Z,83.30
2019-04-25T15:30:33.089Z,83.80
2019-04-25T15:33:01.475Z,84.40
2019-04-25T15:35:32.143Z,84.40
2019-04-25T15:38:17.588Z,83.60
2019-04-25T15:40:47.643Z,83.60
2019-04-25T15:43:23.459Z,84.20
2019-04-25T15:45:54.693Z,84.00
2019-04-25T15:48:23.142Z,84.00
2019-04-25T15:50:51.568Z,84.60
2019-04-25T15:53:19.888Z,84.10
2019-04-25T15:55:48.251Z,83.10
2019-04-25T15:58:17.760Z,82.80
2019-04-25T16:00:46.162Z,82.50
2019-04-25T16:03:14.755Z,81.90
2019-04-25T16:05:43.204Z,80.60
2019-04-25T16:08:11.720Z,76.50
2019-04-25T16:10:40.086Z,71.70
2019-04-25T16:13:08.516Z,66.90
2019-04-25T16:15:37.010Z,64.90
2019-04-25T16:18:06.854Z,65.00
2019-04-25T16:20:35.782Z,67.70
2019-04-25T16:23:04.801Z,70.70
2019-04-25T16:25:33.381Z,73.10
2019-04-25T16:28:01.843Z,74.00
2019-04-25T16:30:32.481Z,74.80
2019-04-25T16:33:00.955Z,75.20
2019-04-25T16:35:30.996Z,74.80
2019-04-25T16:37:59.589Z,75.30
2019-04-25T16:40:28.704Z,76.20
2019-04-25T16:42:57.377Z,76.90
2019-04-25T16:45:26.338Z,77.40
2019-04-25T16:47:54.783Z,77.20
2019-04-25T16:50:24.460Z,76.50
2019-04-25T16:52:52.815Z,76.60
2019-04-25T16:55:24.830Z,76.60
2019-04-25T16:57:53.228Z,76.80
2019-04-25T17:00:36.230Z,77.40
2019-04-25T17:03:04.880Z,77.50
2019-04-25T17:05:35.089Z,78.40
2019-04-25T17:08:03.508Z,79.20
2019-04-25T17:10:32.799Z,79.00
2019-04-25T17:13:01.306Z,79.10
2019-04-25T17:15:34.219Z,80.30
2019-04-25T17:18:06.858Z,81.30
2019-04-25T17:20:36.922Z,82.80
2019-04-25T17:23:06.576Z,84.20
2019-04-25T17:25:36.050Z,85.30
2019-04-25T17:28:04.904Z,86.00
2019-04-25T17:30:34.938Z,87.10
2019-04-25T17:33:07.689Z,88.30
2019-04-25T17:35:46.970Z,89.00
2019-04-25T17:38:19.396Z,89.80
2019-04-25T17:40:47.039Z,90.10
2019-04-25T17:43:15.538Z,90.70
2019-04-25T17:45:43.919Z,90.90
2019-04-25T17:48:12.270Z,91.20
2019-04-25T17:50:41.730Z,91.50
2019-04-25T17:53:10.207Z,91.70
2019-04-25T17:55:39.498Z,92.30
2019-04-25T17:58:08.119Z,92.50
2019-04-25T18:00:38.204Z,92.60
2019-04-25T18:03:08.525Z,92.50
2019-04-25T18:05:36.982Z,92.60
2019-04-25T18:08:05.369Z,92.70
2019-04-25T18:10:35.602Z,92.60
2019-04-25T18:13:05.242Z,92.60
2019-04-25T18:15:47.445Z,92.60
2019-04-25T18:18:29.717Z,92.50
2019-04-25T18:20:58.094Z,92.50
2019-04-25T18:23:39.751Z,92.50
2019-04-25T18:26:26.027Z,92.70
2019-04-25T18:29:07.147Z,92.90
2019-04-25T18:31:35.660Z,93.00
2019-04-25T18:34:05.676Z,93.00
2019-04-25T18:36:45.062Z,93.10
2019-04-25T18:39:15.061Z,93.30
2019-04-25T18:41:48.141Z,93.30
2019-04-25T18:44:16.641Z,93.30
2019-04-25T18:46:47.235Z,93.40
2019-04-25T18:49:15.822Z,93.40
2019-04-25T18:51:54.955Z,93.50
2019-04-25T18:54:22.757Z,93.50
2019-04-25T18:56:58.814Z,93.50
2019-04-25T18:59:28.964Z,93.60
2019-04-25T19:02:05.277Z,93.80
2019-04-25T19:04:38.315Z,93.60
2019-04-25T19:07:06.977Z,93.80
2019-04-25T19:09:35.431Z,93.60
2019-04-25T19:12:03.801Z,93.50
2019-04-25T19:14:32.134Z,93.40
2019-04-25T19:17:00.557Z,93.40
2019-04-25T19:19:28.972Z,93.50
2019-04-25T19:21:57.305Z,93.50
2019-04-25T19:24:25.664Z,93.50
2019-04-25T19:26:54.048Z,93.50
2019-04-25T19:29:22.361Z,93.60
2019-04-25T19:31:53.007Z,93.50
2019-04-25T19:34:21.764Z,93.40
2019-04-25T19:36:51.145Z,93.50
2019-04-25T19:39:41.566Z,93.50
2019-04-25T19:42:14.737Z,93.40
2019-04-25T19:44:43.130Z,93.40
2019-04-25T19:47:11.601Z,93.40
2019-04-25T19:49:40.614Z,93.30
2019-04-25T19:52:10.134Z,93.40
2019-04-25T19:54:38.502Z,93.30
2019-04-25T19:57:06.888Z,93.30
2019-04-25T19:59:35.275Z,93.30
2019-04-25T20:02:05.394Z,93.20
2019-04-25T20:04:41.841Z,93.30
2019-04-25T20:07:18.675Z,93.00
2019-04-25T20:09:54.445Z,93.00
2019-04-25T20:12:24.616Z,93.00
2019-04-25T20:14:53.554Z,93.00
2019-04-25T20:17:22.085Z,93.10
2019-04-25T20:19:50.458Z,93.20
2019-04-25T20:22:18.875Z,93.20
2019-04-25T20:24:48.276Z,93.20
2019-04-25T20:27:16.782Z,93.40
2019-04-25T20:29:46.581Z,93.70
2019-04-25T20:32:15.102Z,93.30
2019-04-25T20:34:43.465Z,93.20
2019-04-25T20:37:11.786Z,93.20
2019-04-25T20:39:40.153Z,93.20
2019-04-25T20:42:08.570Z,93.20
2019-04-25T20:44:36.963Z,92.90
2019-04-25T20:47:05.372Z,92.90
2019-04-25T20:49:33.783Z,92.90
2019-04-25T20:52:02.231Z,92.90
2019-04-25T20:54:31.711Z,92.80
2019-04-25T20:57:00.121Z,93.00
2019-04-25T20:59:28.516Z,92.80
2019-04-25T21:01:57.701Z,92.80
2019-04-25T21:04:44.334Z,92.80
2019-04-25T21:07:12.800Z,92.80
2019-04-25T21:09:42.173Z,92.80
2019-04-25T21:12:10.561Z,92.80
2019-04-25T21:14:52.822Z,92.80
2019-04-25T21:17:35.035Z,92.80
2019-04-25T21:20:05.976Z,92.80
2019-04-25T21:22:34.428Z,92.90
2019-04-25T21:25:05.456Z,92.90
2019-04-25T21:27:33.016Z,92.90
2019-04-25T21:30:02.356Z,92.90
2019-04-25T21:32:32.549Z,92.90
2019-04-25T21:35:01.327Z,92.90
2019-04-25T21:37:29.817Z,93.00
2019-04-25T21:40:12.017Z,93.00
2019-04-25T21:42:45.074Z,93.20
2019-04-25T21:45:13.580Z,93.30
2019-04-25T21:47:42.014Z,93.30
2019-04-25T21:50:10.693Z,93.40
2019-04-25T21:52:39.397Z,93.40
2019-04-25T21:55:07.991Z,93.50
2019-04-25T21:57:36.581Z,93.60
2019-04-25T22:00:10.841Z,93.60
2019-04-25T22:02:39.707Z,93.60
2019-04-25T22:05:08.374Z,93.60
2019-04-25T22:07:37.068Z,93.50
2019-04-25T22:10:07.018Z,93.60
2019-04-25T22:12:35.445Z,93.60
2019-04-25T22:15:07.026Z,93.70
2019-04-25T22:17:35.503Z,93.80
2019-04-25T22:20:06.348Z,93.80
2019-04-25T22:22:35.057Z,93.90
2019-04-25T22:25:04.638Z,93.80
2019-04-25T22:27:36.648Z,93.80
2019-04-25T22:30:09.401Z,93.80
2019-04-25T22:32:42.695Z,93.80
2019-04-25T22:35:16.031Z,93.90
2019-04-25T22:37:44.463Z,93.90
2019-04-25T22:40:12.881Z,93.90
2019-04-25T22:42:41.296Z,93.90
2019-04-25T22:45:09.822Z,93.90
2019-04-25T22:47:38.381Z,93.80
2019-04-25T22:50:06.725Z,93.90
2019-04-25T22:52:35.478Z,93.80
2019-04-25T22:55:06.266Z,93.90
2019-04-25T22:57:35.120Z,94.00
2019-04-25T23:00:05.238Z,94.00
2019-04-25T23:02:47.471Z,94.00
2019-04-25T23:05:19.896Z,94.10
2019-04-25T23:07:48.363Z,94.10
2019-04-25T23:10:16.926Z,94.00
2019-04-25T23:12:45.278Z,94.10
2019-04-25T23:15:13.709Z,94.20
2019-04-25T23:17:42.152Z,94.20
2019-04-25T23:20:11.745Z,94.20
2019-04-25T23:22:40.278Z,94.20
2019-04-25T23:25:10.654Z,94.30
2019-04-25T23:27:55.958Z,94.30
2019-04-25T23:30:29.090Z,94.30
2019-04-25T23:32:57.502Z,94.70
2019-04-25T23:35:29.971Z,94.80
2019-04-25T23:37:55.964Z,94.50
2019-04-25T23:40:24.370Z,94.50
2019-04-25T23:42:53.033Z,94.50
2019-04-25T23:45:21.509Z,94.50
2019-04-25T23:47:49.856Z,94.40
2019-04-25T23:50:18.523Z,94.50
2019-04-25T23:52:46.925Z,94.60
2019-04-25T23:55:15.514Z,94.50
2019-04-25T23:57:43.986Z,94.60
